PWSweather.com
Personal Weather Stations
Station Observations
LOBIOS
Galicia, LobiosES

GaliciaLobiosES

Lat: 41.895, Lon: -8.091667

Elevation: 1597

Station Type: Automática/Davis Vantage Pro2 Plus

Latest ConditionsUpdated 10:20:01 PM GMT+01:01 Thursday, Oct 18, 2018
Currently Today's Max Today's Min Today's Average
Temperature 57.8°F14.3°C 65.8°F18.8°C 53.3°F11.8°C 58.1°F14.5°C
Dew Point 53.6°F12.0°C 57.1°F13.9°C 51.3°F10.7°C 53.8°F12.1°C
Winds 11.5 mph NE18.5 kmh NE 17.3 mph -27.8 kmh - - 8.2 mph 13.2 kmh
Wind Gusts 15.0 mph24.1 kmh 21.9 mph35.2 kmh - -
Humidity 86% 94% 72% 86%
Pressure 30.01 in1016.3 mb 30.01 in1016.3 mb 29.90 in1012.5 mb -
Precipitation - 0.13 in3.3 mm - -
Hour Temp Dew Point Humidity Winds Wind Gusts Pressure Precip Precip Rate Daily Precip Total
10:20 PM 57.8°F14.3°C 53.6°F12.0°C 86% 11.5 mph NE18.5 kmh NE 15.0 mph24.1 kmh 30.01 in1016.3 mb - 0.00 in0.0 mm 0.13 in3.3 mm
10:10 PM 57.7°F14.3°C 53.9°F12.2°C 87% 11.5 mph NE18.5 kmh NE 15.0 mph24.1 kmh 30.01 in1016.3 mb - 0.00 in0.0 mm 0.13 in3.3 mm
10:00 PM 57.6°F14.2°C 53.8°F12.1°C 87% 8.1 mph NE13.0 kmh NE 12.7 mph20.4 kmh 30.00 in1015.9 mb - 0.00 in0.0 mm 0.13 in3.3 mm
09:50 PM 57.6°F14.2°C 53.4°F11.9°C 86% 9.2 mph NE14.8 kmh NE 11.5 mph18.5 kmh 30.01 in1016.3 mb - 0.00 in0.0 mm 0.13 in3.3 mm
09:40 PM 57.9°F14.4°C 53.7°F12.1°C 86% 8.1 mph ENE13.0 kmh ENE 10.4 mph16.7 kmh 30.00 in1015.9 mb - 0.00 in0.0 mm 0.13 in3.3 mm
09:30 PM 58.4°F14.7°C 53.9°F12.2°C 85% 6.9 mph ENE11.1 kmh ENE 9.2 mph14.8 kmh 30.00 in1015.9 mb - 0.00 in0.0 mm 0.13 in3.3 mm
09:20 PM 58.6°F14.8°C 54.1°F12.3°C 85% 6.9 mph ENE11.1 kmh ENE 11.5 mph18.5 kmh 30.01 in1016.3 mb - 0.00 in0.0 mm 0.13 in3.3 mm
09:10 PM 58.9°F14.9°C 54.0°F12.2°C 84% 8.1 mph ENE13.0 kmh ENE 10.4 mph16.7 kmh 30.00 in1015.9 mb - 0.00 in0.0 mm 0.13 in3.3 mm
09:00 PM 59.1°F15.1°C 54.3°F12.4°C 84% 8.1 mph ENE13.0 kmh ENE 12.7 mph20.4 kmh 30.00 in1015.9 mb - 0.00 in0.0 mm 0.13 in3.3 mm
08:50 PM 59.3°F15.2°C 54.5°F12.5°C 84% 10.4 mph ENE16.7 kmh ENE 16.1 mph25.9 kmh 29.99 in1015.6 mb - 0.00 in0.0 mm 0.13 in3.3 mm
08:40 PM 59.5°F15.3°C 54.3°F12.4°C 83% 10.4 mph ENE16.7 kmh ENE 11.5 mph18.5 kmh 29.99 in1015.6 mb - 0.00 in0.0 mm 0.13 in3.3 mm
08:30 PM 59.8°F15.4°C 54.6°F12.6°C 83% 11.5 mph 18.5 kmh 13.8 mph22.2 kmh 29.99 in1015.6 mb - 0.00 in0.0 mm 0.13 in3.3 mm
08:20 PM 59.9°F15.5°C 54.7°F12.6°C 83% 10.4 mph ENE16.7 kmh ENE 15.0 mph24.1 kmh 29.99 in1015.6 mb - 0.00 in0.0 mm 0.13 in3.3 mm
08:10 PM 60.1°F15.6°C 54.5°F12.5°C 82% 6.9 mph E11.1 kmh E 11.5 mph18.5 kmh 29.98 in1015.2 mb - 0.00 in0.0 mm 0.13 in3.3 mm
07:50 PM 60.8°F16.0°C 54.9°F12.7°C 81% 8.1 mph 13.0 kmh 12.7 mph20.4 kmh 29.98 in1015.2 mb - 0.00 in0.0 mm 0.13 in3.3 mm
07:40 PM 60.9°F16.1°C 54.7°F12.6°C 80% 6.9 mph ENE11.1 kmh ENE 11.5 mph18.5 kmh 29.98 in1015.2 mb - 0.00 in0.0 mm 0.13 in3.3 mm
07:30 PM 61.3°F16.3°C 55.1°F12.8°C 80% 9.2 mph ENE14.8 kmh ENE 12.7 mph20.4 kmh 29.98 in1015.2 mb - 0.00 in0.0 mm 0.13 in3.3 mm
07:10 PM 61.7°F16.5°C 55.1°F12.8°C 79% 12.7 mph NE20.4 kmh NE 13.8 mph22.2 kmh 29.97 in1014.9 mb - 0.00 in0.0 mm 0.13 in3.3 mm
07:00 PM 62.0°F16.7°C 55.4°F13.0°C 79% 5.8 mph ENE9.3 kmh ENE 9.2 mph14.8 kmh 29.97 in1014.9 mb - 0.00 in0.0 mm 0.13 in3.3 mm
06:50 PM 62.2°F16.8°C 55.3°F12.9°C 78% 5.8 mph ENE9.3 kmh ENE 8.1 mph13.0 kmh 29.96 in1014.6 mb - 0.00 in0.0 mm 0.13 in3.3 mm
06:40 PM 62.6°F17.0°C 55.6°F13.1°C 78% 4.6 mph NE7.4 kmh NE 6.9 mph11.1 kmh 29.96 in1014.6 mb - 0.00 in0.0 mm 0.13 in3.3 mm
06:30 PM 62.8°F17.1°C 55.5°F13.1°C 77% 8.1 mph ENE13.0 kmh ENE 13.8 mph22.2 kmh 29.95 in1014.2 mb - 0.00 in0.0 mm 0.13 in3.3 mm
06:20 PM 63.1°F17.3°C 55.7°F13.2°C 77% 9.2 mph ENE14.8 kmh ENE 13.8 mph22.2 kmh 29.95 in1014.2 mb - 0.00 in0.0 mm 0.13 in3.3 mm
06:10 PM 63.3°F17.4°C 56.0°F13.3°C 77% 4.6 mph ENE7.4 kmh ENE 8.1 mph13.0 kmh 29.94 in1013.9 mb - 0.00 in0.0 mm 0.13 in3.3 mm
06:00 PM 63.6°F17.6°C 55.9°F13.3°C 76% 2.3 mph NE3.7 kmh NE 4.6 mph7.4 kmh 29.94 in1013.9 mb - 0.00 in0.0 mm 0.13 in3.3 mm
05:50 PM 63.8°F17.7°C 56.1°F13.4°C 76% 6.9 mph NE11.1 kmh NE 9.2 mph14.8 kmh 29.94 in1013.9 mb - 0.00 in0.0 mm 0.13 in3.3 mm
05:40 PM 64.2°F17.9°C 56.5°F13.6°C 76% 5.8 mph NE9.3 kmh NE 6.9 mph11.1 kmh 29.94 in1013.9 mb - 0.00 in0.0 mm 0.13 in3.3 mm
05:30 PM 64.5°F18.1°C 56.4°F13.6°C 75% 2.3 mph NE3.7 kmh NE 5.8 mph9.3 kmh 29.94 in1013.9 mb - 0.00 in0.0 mm 0.13 in3.3 mm
05:20 PM 64.7°F18.2°C 56.6°F13.7°C 75% 8.1 mph NE13.0 kmh NE 9.2 mph14.8 kmh 29.94 in1013.9 mb - 0.00 in0.0 mm 0.13 in3.3 mm
05:10 PM 64.9°F18.3°C 56.4°F13.6°C 74% 8.1 mph NE13.0 kmh NE 12.7 mph20.4 kmh 29.94 in1013.9 mb - 0.00 in0.0 mm 0.13 in3.3 mm
05:00 PM 64.9°F18.3°C 56.0°F13.3°C 73% 10.4 mph NE16.7 kmh NE 13.8 mph22.2 kmh 29.95 in1014.2 mb - 0.00 in0.0 mm 0.13 in3.3 mm
04:50 PM 64.9°F18.3°C 56.4°F13.6°C 74% 10.4 mph NE16.7 kmh NE 15.0 mph24.1 kmh 29.95 in1014.2 mb - 0.00 in0.0 mm 0.13 in3.3 mm
04:40 PM 64.9°F18.3°C 56.4°F13.6°C 74% 10.4 mph NE16.7 kmh NE 15.0 mph24.1 kmh 29.94 in1013.9 mb - 0.00 in0.0 mm 0.13 in3.3 mm
04:30 PM 64.7°F18.2°C 56.2°F13.4°C 74% 11.5 mph NE18.5 kmh NE 15.0 mph24.1 kmh 29.94 in1013.9 mb - 0.00 in0.0 mm 0.13 in3.3 mm
04:20 PM 64.9°F18.3°C 56.0°F13.3°C 73% 10.4 mph ENE16.7 kmh ENE 13.8 mph22.2 kmh 29.95 in1014.2 mb - 0.00 in0.0 mm 0.13 in3.3 mm
04:10 PM 65.2°F18.4°C 56.7°F13.7°C 74% 10.4 mph ENE16.7 kmh ENE 15.0 mph24.1 kmh 29.95 in1014.2 mb - 0.00 in0.0 mm 0.13 in3.3 mm
03:50 PM 64.9°F18.3°C 56.5°F13.6°C 74% 12.7 mph NE20.4 kmh NE 20.7 mph33.3 kmh 29.95 in1014.2 mb - 0.00 in0.0 mm 0.13 in3.3 mm
03:40 PM 65.2°F18.4°C 56.7°F13.7°C 74% 10.4 mph ENE16.7 kmh ENE 15.0 mph24.1 kmh 29.95 in1014.2 mb - 0.00 in0.0 mm 0.13 in3.3 mm
03:30 PM 65.3°F18.5°C 56.8°F13.8°C 74% 9.2 mph NE14.8 kmh NE 12.7 mph20.4 kmh 29.95 in1014.2 mb - 0.00 in0.0 mm 0.13 in3.3 mm
03:20 PM 65.5°F18.6°C 56.7°F13.7°C 73% 9.2 mph ENE14.8 kmh ENE 15.0 mph24.1 kmh 29.95 in1014.2 mb - 0.00 in0.0 mm 0.13 in3.3 mm
03:10 PM 65.8°F18.8°C 56.5°F13.6°C 72% 12.7 mph 20.4 kmh 16.1 mph25.9 kmh 29.95 in1014.2 mb - 0.00 in0.0 mm 0.13 in3.3 mm
03:00 PM 65.6°F18.7°C 57.1°F13.9°C 74% 15.0 mph NE24.1 kmh NE 16.1 mph25.9 kmh 29.95 in1014.2 mb - 0.00 in0.0 mm 0.13 in3.3 mm
02:50 PM 64.7°F18.2°C 57.0°F13.9°C 76% 10.4 mph NE16.7 kmh NE 15.0 mph24.1 kmh 29.95 in1014.2 mb - 0.00 in0.0 mm 0.13 in3.3 mm
02:40 PM 63.8°F17.7°C 56.8°F13.8°C 78% 10.4 mph NE16.7 kmh NE 15.0 mph24.1 kmh 29.96 in1014.6 mb - 0.00 in0.0 mm 0.13 in3.3 mm
02:30 PM 63.8°F17.7°C 56.8°F13.8°C 78% 8.1 mph ENE13.0 kmh ENE 12.7 mph20.4 kmh 29.96 in1014.6 mb - 0.00 in0.0 mm 0.13 in3.3 mm
02:20 PM 63.8°F17.7°C 56.8°F13.8°C 78% 5.8 mph E9.3 kmh E 6.9 mph11.1 kmh 29.97 in1014.9 mb - 0.00 in0.0 mm 0.13 in3.3 mm
02:10 PM 63.7°F17.6°C 57.1°F13.9°C 79% 6.9 mph E11.1 kmh E 11.5 mph18.5 kmh 29.97 in1014.9 mb - 0.00 in0.0 mm 0.13 in3.3 mm
02:00 PM 63.4°F17.4°C 56.8°F13.8°C 79% 6.9 mph ENE11.1 kmh ENE 9.2 mph14.8 kmh 29.97 in1014.9 mb - 0.00 in0.0 mm 0.13 in3.3 mm
01:50 PM 63.2°F17.3°C 56.6°F13.7°C 79% 6.9 mph ENE11.1 kmh ENE 9.2 mph14.8 kmh 29.97 in1014.9 mb - 0.00 in0.0 mm 0.13 in3.3 mm
01:40 PM 63.3°F17.4°C 56.7°F13.7°C 79% 9.2 mph NE14.8 kmh NE 10.4 mph16.7 kmh 29.97 in1014.9 mb - 0.00 in0.0 mm 0.13 in3.3 mm
01:30 PM 63.0°F17.2°C 56.7°F13.7°C 80% 5.8 mph NE9.3 kmh NE 6.9 mph11.1 kmh 29.97 in1014.9 mb - 0.00 in0.0 mm 0.13 in3.3 mm
01:20 PM 62.4°F16.9°C 56.5°F13.6°C 81% 6.9 mph ENE11.1 kmh ENE 9.2 mph14.8 kmh 29.97 in1014.9 mb - 0.00 in0.0 mm 0.13 in3.3 mm
01:10 PM 61.7°F16.5°C 55.8°F13.2°C 81% 5.8 mph ENE9.3 kmh ENE 8.1 mph13.0 kmh 29.98 in1015.2 mb - 0.00 in0.0 mm 0.13 in3.3 mm
01:00 PM 61.2°F16.2°C 55.3°F12.9°C 81% 5.8 mph ENE9.3 kmh ENE 8.1 mph13.0 kmh 29.98 in1015.2 mb - 0.00 in0.0 mm 0.13 in3.3 mm
12:50 PM 61.1°F16.2°C 55.5°F13.1°C 82% 6.9 mph ENE11.1 kmh ENE 11.5 mph18.5 kmh 29.98 in1015.2 mb - 0.00 in0.0 mm 0.13 in3.3 mm
12:40 PM 60.7°F15.9°C 55.1°F12.8°C 82% 8.1 mph NE13.0 kmh NE 10.4 mph16.7 kmh 29.98 in1015.2 mb - 0.00 in0.0 mm 0.13 in3.3 mm
12:30 PM 60.6°F15.9°C 55.1°F12.8°C 82% 6.9 mph NE11.1 kmh NE 10.4 mph16.7 kmh 29.98 in1015.2 mb - 0.00 in0.0 mm 0.13 in3.3 mm
12:20 PM 60.9°F16.1°C 55.4°F13.0°C 82% 8.1 mph NE13.0 kmh NE 12.7 mph20.4 kmh 29.98 in1015.2 mb - 0.00 in0.0 mm 0.13 in3.3 mm
12:10 PM 60.6°F15.9°C 55.1°F12.8°C 82% 8.1 mph E13.0 kmh E 11.5 mph18.5 kmh 29.98 in1015.2 mb - 0.00 in0.0 mm 0.13 in3.3 mm
12:00 PM 60.4°F15.8°C 55.2°F12.9°C 83% 11.5 mph NE18.5 kmh NE 16.1 mph25.9 kmh 29.98 in1015.2 mb - 0.00 in0.0 mm 0.13 in3.3 mm
11:50 AM 59.7°F15.4°C 54.9°F12.7°C 84% 10.4 mph NE16.7 kmh NE 11.5 mph18.5 kmh 29.98 in1015.2 mb - 0.00 in0.0 mm 0.13 in3.3 mm
11:40 AM 59.1°F15.1°C 54.6°F12.6°C 85% 9.2 mph ENE14.8 kmh ENE 12.7 mph20.4 kmh 29.98 in1015.2 mb - 0.00 in0.0 mm 0.13 in3.3 mm
11:30 AM 58.8°F14.9°C 54.3°F12.4°C 85% 11.5 mph NE18.5 kmh NE 15.0 mph24.1 kmh 29.98 in1015.2 mb - 0.00 in0.0 mm 0.13 in3.3 mm
11:20 AM 58.2°F14.6°C 54.0°F12.2°C 86% 12.7 mph NE20.4 kmh NE 16.1 mph25.9 kmh 29.98 in1015.2 mb - 0.00 in0.0 mm 0.13 in3.3 mm
11:10 AM 57.6°F14.2°C 53.4°F11.9°C 86% 9.2 mph ENE14.8 kmh ENE 12.7 mph20.4 kmh 29.98 in1015.2 mb - 0.00 in0.0 mm 0.13 in3.3 mm
11:00 AM 58.0°F14.4°C 53.5°F11.9°C 85% 17.3 mph NE27.8 kmh NE 21.9 mph35.2 kmh 29.98 in1015.2 mb - 0.00 in0.0 mm 0.13 in3.3 mm
10:50 AM 57.8°F14.3°C 53.6°F12.0°C 86% 11.5 mph ENE18.5 kmh ENE 16.1 mph25.9 kmh 29.98 in1015.2 mb - 0.00 in0.0 mm 0.13 in3.3 mm
10:40 AM 57.3°F14.1°C 53.1°F11.7°C 86% 10.4 mph NE16.7 kmh NE 19.6 mph31.5 kmh 29.98 in1015.2 mb - 0.00 in0.0 mm 0.13 in3.3 mm
10:30 AM 57.1°F13.9°C 53.3°F11.8°C 87% 11.5 mph NE18.5 kmh NE 13.8 mph22.2 kmh 29.97 in1014.9 mb - 0.00 in0.0 mm 0.13 in3.3 mm
10:20 AM 56.5°F13.6°C 53.0°F11.7°C 88% 11.5 mph NE18.5 kmh NE 13.8 mph22.2 kmh 29.97 in1014.9 mb - 0.00 in0.0 mm 0.13 in3.3 mm
10:10 AM 56.3°F13.5°C 53.1°F11.7°C 89% 12.7 mph NE20.4 kmh NE 18.4 mph29.6 kmh 29.97 in1014.9 mb - 0.00 in0.0 mm 0.13 in3.3 mm
10:00 AM 56.2°F13.4°C 53.3°F11.8°C 90% 11.5 mph NE18.5 kmh NE 16.1 mph25.9 kmh 29.97 in1014.9 mb - 0.00 in0.0 mm 0.13 in3.3 mm
09:50 AM 55.5°F13.1°C 52.7°F11.5°C 90% 10.4 mph NE16.7 kmh NE 15.0 mph24.1 kmh 29.97 in1014.9 mb - 0.00 in0.0 mm 0.13 in3.3 mm
09:40 AM 55.2°F12.9°C 52.6°F11.4°C 91% 11.5 mph NE18.5 kmh NE 19.6 mph31.5 kmh 29.97 in1014.9 mb - 0.00 in0.0 mm 0.13 in3.3 mm
09:30 AM 55.0°F12.8°C 52.4°F11.3°C 91% 12.7 mph NE20.4 kmh NE 15.0 mph24.1 kmh 29.97 in1014.9 mb - 0.00 in0.0 mm 0.13 in3.3 mm
09:20 AM 54.7°F12.6°C 52.4°F11.3°C 92% 10.4 mph NE16.7 kmh NE 16.1 mph25.9 kmh 29.97 in1014.9 mb - 0.00 in0.0 mm 0.13 in3.3 mm
09:10 AM 54.4°F12.4°C 52.4°F11.3°C 93% 10.4 mph NE16.7 kmh NE 12.7 mph20.4 kmh 29.97 in1014.9 mb - 0.00 in0.0 mm 0.13 in3.3 mm
09:00 AM 53.8°F12.1°C 51.8°F11.0°C 93% 11.5 mph NE18.5 kmh NE 18.4 mph29.6 kmh 29.97 in1014.9 mb - 0.00 in0.0 mm 0.13 in3.3 mm
08:50 AM 53.6°F12.0°C 51.6°F10.9°C 93% 8.1 mph ENE13.0 kmh ENE 11.5 mph18.5 kmh 29.96 in1014.6 mb - 0.00 in0.0 mm 0.13 in3.3 mm
08:40 AM 53.6°F12.0°C 51.9°F11.1°C 94% 6.9 mph NE11.1 kmh NE 9.2 mph14.8 kmh 29.95 in1014.2 mb - 0.00 in0.0 mm 0.13 in3.3 mm
08:30 AM 53.5°F11.9°C 51.8°F11.0°C 94% 6.9 mph ENE11.1 kmh ENE 9.2 mph14.8 kmh 29.95 in1014.2 mb - 0.00 in0.0 mm 0.13 in3.3 mm
08:20 AM 53.3°F11.8°C 51.3°F10.7°C 93% 8.1 mph NE13.0 kmh NE 11.5 mph18.5 kmh 29.95 in1014.2 mb - 0.00 in0.0 mm 0.13 in3.3 mm
08:10 AM 53.3°F11.8°C 51.6°F10.9°C 94% 5.8 mph NE9.3 kmh NE 9.2 mph14.8 kmh 29.95 in1014.2 mb - 0.00 in0.0 mm 0.13 in3.3 mm
08:00 AM 53.4°F11.9°C 51.7°F10.9°C 94% 3.5 mph NE5.6 kmh NE 6.9 mph11.1 kmh 29.94 in1013.9 mb - 0.00 in0.0 mm 0.13 in3.3 mm
07:50 AM 53.3°F11.8°C 51.6°F10.9°C 94% 5.8 mph ENE9.3 kmh ENE 8.1 mph13.0 kmh 29.94 in1013.9 mb - 0.00 in0.0 mm 0.13 in3.3 mm
07:40 AM 53.3°F11.8°C 51.3°F10.7°C 93% 1.1 mph NE1.8 kmh NE 3.5 mph5.6 kmh 29.94 in1013.9 mb - 0.00 in0.0 mm 0.13 in3.3 mm
07:30 AM 53.3°F11.8°C 51.3°F10.7°C 93% 5.8 mph NE9.3 kmh NE 9.2 mph14.8 kmh 29.93 in1013.5 mb - 0.00 in0.0 mm 0.13 in3.3 mm
07:20 AM 53.4°F11.9°C 51.4°F10.8°C 93% 4.6 mph ENE7.4 kmh ENE 6.9 mph11.1 kmh 29.93 in1013.5 mb - 0.00 in0.0 mm 0.13 in3.3 mm
07:10 AM 53.6°F12.0°C 51.6°F10.9°C 93% 5.8 mph NE9.3 kmh NE 9.2 mph14.8 kmh 29.93 in1013.5 mb - 0.00 in0.0 mm 0.13 in3.3 mm
07:00 AM 53.6°F12.0°C 51.6°F10.9°C 93% 8.1 mph NE13.0 kmh NE 11.5 mph18.5 kmh 29.93 in1013.5 mb - 0.00 in0.0 mm 0.13 in3.3 mm
06:50 AM 53.6°F12.0°C 51.6°F10.9°C 93% 9.2 mph NE14.8 kmh NE 11.5 mph18.5 kmh 29.93 in1013.5 mb - 0.00 in0.0 mm 0.13 in3.3 mm
06:30 AM 53.6°F12.0°C 51.6°F10.9°C 93% 11.5 mph NE18.5 kmh NE 19.6 mph31.5 kmh 29.93 in1013.5 mb - 0.00 in0.0 mm 0.13 in3.3 mm
06:20 AM 53.6°F12.0°C 51.7°F10.9°C 93% 8.1 mph NE13.0 kmh NE 11.5 mph18.5 kmh 29.92 in1013.2 mb - 0.00 in0.0 mm 0.13 in3.3 mm
06:10 AM 53.7°F12.1°C 51.7°F10.9°C 93% 6.9 mph NE11.1 kmh NE 10.4 mph16.7 kmh 29.92 in1013.2 mb - 0.00 in0.0 mm 0.13 in3.3 mm
06:00 AM 53.7°F12.1°C 51.7°F10.9°C 93% 9.2 mph NE14.8 kmh NE 11.5 mph18.5 kmh 29.92 in1013.2 mb - 0.00 in0.0 mm 0.13 in3.3 mm
05:50 AM 53.8°F12.1°C 51.8°F11.0°C 93% 8.1 mph NE13.0 kmh NE 9.2 mph14.8 kmh 29.92 in1013.2 mb - 0.00 in0.0 mm 0.13 in3.3 mm
05:40 AM 53.8°F12.1°C 51.8°F11.0°C 93% 9.2 mph NE14.8 kmh NE 11.5 mph18.5 kmh 29.92 in1013.2 mb - 0.00 in0.0 mm 0.13 in3.3 mm
05:30 AM 53.7°F12.1°C 51.8°F11.0°C 93% 10.4 mph NE16.7 kmh NE 13.8 mph22.2 kmh 29.92 in1013.2 mb - 0.00 in0.0 mm 0.13 in3.3 mm
05:20 AM 53.7°F12.1°C 52.0°F11.1°C 94% 10.4 mph NE16.7 kmh NE 13.8 mph22.2 kmh 29.92 in1013.2 mb - 0.00 in0.0 mm 0.13 in3.3 mm
05:10 AM 53.6°F12.0°C 51.9°F11.1°C 94% 11.5 mph NE18.5 kmh NE 18.4 mph29.6 kmh 29.91 in1012.9 mb - 0.00 in0.0 mm 0.13 in3.3 mm
05:00 AM 53.5°F11.9°C 51.8°F11.0°C 94% 11.5 mph NE18.5 kmh NE 13.8 mph22.2 kmh 29.91 in1012.9 mb - 0.00 in0.0 mm 0.13 in3.3 mm
04:50 AM 53.5°F11.9°C 51.8°F11.0°C 94% 10.4 mph NE16.7 kmh NE 13.8 mph22.2 kmh 29.91 in1012.9 mb - 0.00 in0.0 mm 0.13 in3.3 mm
04:40 AM 53.5°F11.9°C 51.8°F11.0°C 94% 11.5 mph NE18.5 kmh NE 16.1 mph25.9 kmh 29.91 in1012.9 mb - 0.00 in0.0 mm 0.13 in3.3 mm
04:30 AM 53.6°F12.0°C 51.9°F11.1°C 94% 9.2 mph NE14.8 kmh NE 11.5 mph18.5 kmh 29.91 in1012.9 mb - 0.00 in0.0 mm 0.13 in3.3 mm
04:20 AM 53.8°F12.1°C 52.1°F11.2°C 94% 5.8 mph NE9.3 kmh NE 9.2 mph14.8 kmh 29.90 in1012.5 mb - 0.00 in0.0 mm 0.13 in3.3 mm
04:10 AM 53.8°F12.1°C 52.1°F11.2°C 94% 6.9 mph NE11.1 kmh NE 8.1 mph13.0 kmh 29.91 in1012.9 mb - 0.00 in0.0 mm 0.13 in3.3 mm
04:00 AM 53.8°F12.1°C 52.1°F11.2°C 94% 9.2 mph NE14.8 kmh NE 11.5 mph18.5 kmh 29.91 in1012.9 mb - 0.00 in0.0 mm 0.13 in3.3 mm
03:50 AM 53.8°F12.1°C 52.1°F11.2°C 94% 8.1 mph NE13.0 kmh NE 11.5 mph18.5 kmh 29.91 in1012.9 mb - 0.00 in0.0 mm 0.13 in3.3 mm
03:40 AM 53.9°F12.2°C 52.2°F11.2°C 94% 8.1 mph NE13.0 kmh NE 11.5 mph18.5 kmh 29.91 in1012.9 mb - 0.00 in0.0 mm 0.13 in3.3 mm
03:30 AM 53.9°F12.2°C 52.2°F11.2°C 94% 5.8 mph NE9.3 kmh NE 8.1 mph13.0 kmh 29.91 in1012.9 mb - 0.00 in0.0 mm 0.13 in3.3 mm
03:20 AM 53.9°F12.2°C 52.2°F11.2°C 94% 5.8 mph NE9.3 kmh NE 6.9 mph11.1 kmh 29.92 in1013.2 mb - 0.02 in0.5 mm 0.13 in3.3 mm
03:10 AM 54.1°F12.3°C 52.4°F11.3°C 94% 4.6 mph NE7.4 kmh NE 6.9 mph11.1 kmh 29.92 in1013.2 mb - 0.06 in1.5 mm 0.13 in3.3 mm
03:00 AM 54.1°F12.3°C 52.4°F11.3°C 94% 3.5 mph ENE5.6 kmh ENE 4.6 mph7.4 kmh 29.92 in1013.2 mb - 0.01 in0.3 mm 0.07 in1.8 mm
02:50 AM 54.2°F12.3°C 52.5°F11.4°C 94% 4.6 mph E7.4 kmh E 4.6 mph7.4 kmh 29.92 in1013.2 mb - 0.02 in0.5 mm 0.06 in1.5 mm
02:40 AM 54.2°F12.3°C 52.5°F11.4°C 94% 2.3 mph NE3.7 kmh NE 4.6 mph7.4 kmh 29.93 in1013.5 mb - 0.02 in0.5 mm 0.04 in1.0 mm
02:30 AM 54.2°F12.3°C 52.5°F11.4°C 94% 6.9 mph NE11.1 kmh NE 8.1 mph13.0 kmh 29.93 in1013.5 mb - 0.02 in0.5 mm 0.03 in0.8 mm
02:20 AM 54.1°F12.3°C 52.4°F11.3°C 94% 8.1 mph NE13.0 kmh NE 10.4 mph16.7 kmh 29.93 in1013.5 mb - 0.00 in0.0 mm 0.02 in0.5 mm
02:10 AM 54.1°F12.3°C 52.4°F11.3°C 94% 9.2 mph NE14.8 kmh NE 12.7 mph20.4 kmh 29.92 in1013.2 mb - 0.00 in0.0 mm 0.02 in0.5 mm
02:00 AM 54.0°F12.2°C 52.3°F11.3°C 94% 4.6 mph NE7.4 kmh NE 8.1 mph13.0 kmh 29.92 in1013.2 mb - 0.00 in0.0 mm 0.02 in0.5 mm
01:50 AM 54.0°F12.2°C 52.3°F11.3°C 94% Calm Calm 3.5 mph5.6 kmh 29.92 in1013.2 mb - 0.01 in0.3 mm 0.02 in0.5 mm
01:40 AM 54.0°F12.2°C 52.3°F11.3°C 94% 5.8 mph NE9.3 kmh NE 11.5 mph18.5 kmh 29.91 in1012.9 mb - 0.01 in0.3 mm 0.01 in0.3 mm
01:30 AM 54.1°F12.3°C 52.4°F11.3°C 94% 10.4 mph NE16.7 kmh NE 12.7 mph20.4 kmh 29.92 in1013.2 mb - 0.00 in0.0 mm 0.00 in0.0 mm
01:20 AM 54.1°F12.3°C 52.4°F11.3°C 94% 6.9 mph NE11.1 kmh NE 9.2 mph14.8 kmh 29.93 in1013.5 mb - 0.00 in0.0 mm 0.00 in0.0 mm
01:10 AM 54.1°F12.3°C 52.4°F11.3°C 94% 1.1 mph ENE1.8 kmh ENE 2.3 mph3.7 kmh 29.93 in1013.5 mb - 0.00 in0.0 mm 0.00 in0.0 mm
01:00 AM 54.0°F12.2°C 52.3°F11.3°C 94% 5.8 mph NE9.3 kmh NE 8.1 mph13.0 kmh 29.93 in1013.5 mb - 0.00 in0.0 mm 0.00 in0.0 mm
12:50 AM 54.0°F12.2°C 52.3°F11.3°C 94% 6.9 mph NE11.1 kmh NE 10.4 mph16.7 kmh 29.93 in1013.5 mb - 0.00 in0.0 mm 0.00 in0.0 mm
12:40 AM 54.0°F12.2°C 52.3°F11.3°C 94% 6.9 mph NE11.1 kmh NE 8.1 mph13.0 kmh 29.94 in1013.9 mb - 0.00 in0.0 mm 0.00 in0.0 mm
12:30 AM 54.0°F12.2°C 52.3°F11.3°C 94% 5.8 mph ENE9.3 kmh ENE 5.8 mph9.3 kmh 29.94 in1013.9 mb - 0.00 in0.0 mm 0.00 in0.0 mm
12:20 AM 54.0°F12.2°C 52.3°F11.3°C 94% 4.6 mph E7.4 kmh E 8.1 mph13.0 kmh 29.94 in1013.9 mb - 0.00 in0.0 mm 0.00 in0.0 mm
12:10 AM 54.1°F12.3°C 52.4°F11.3°C 94% 3.5 mph NE5.6 kmh NE 4.6 mph7.4 kmh 29.94 in1013.9 mb - 0.00 in0.0 mm 0.00 in0.0 mm
12:00 AM 54.3°F12.4°C 52.6°F11.4°C 94% 5.8 mph E9.3 kmh E 8.1 mph13.0 kmh 29.95 in1014.2 mb - 0.00 in0.0 mm 0.00 in0.0 mm